sensor_id;sensor_type;location;lat;lon;timestamp;pressure;altitude;pressure_sealevel;temperature;humidity
26320;BME280;14024;52.226;5.200;2024-03-02T00:00:00;99731.44;;;10.27;82.05
26320;BME280;14024;52.226;5.200;2024-03-02T00:02:27;99734.56;;;10.72;84.60
26320;BME280;14024;52.226;5.200;2024-03-02T00:04:52;99746.44;;;10.54;83.17
26320;BME280;14024;52.226;5.200;2024-03-02T00:07:18;99747.22;;;10.16;83.78
26320;BME280;14024;52.226;5.200;2024-03-02T00:09:44;99751.72;;;10.41;83.64
26320;BME280;14024;52.226;5.200;2024-03-02T00:12:11;99744.94;;;10.10;84.17
26320;BME280;14024;52.226;5.200;2024-03-02T00:14:40;99761.56;;;10.26;85.39
26320;BME280;14024;52.226;5.200;2024-03-02T00:17:16;99782.44;;;10.31;84.33
26320;BME280;14024;52.226;5.200;2024-03-02T00:19:44;99783.25;;;10.32;84.16
26320;BME280;14024;52.226;5.200;2024-03-02T00:22:09;99806.00;;;9.95;83.50
26320;BME280;14024;52.226;5.200;2024-03-02T00:24:35;99818.34;;;10.08;84.81
26320;BME280;14024;52.226;5.200;2024-03-02T00:27:01;99819.38;;;10.06;83.72
26320;BME280;14024;52.226;5.200;2024-03-02T00:29:29;99852.94;;;10.05;85.00
26320;BME280;14024;52.226;5.200;2024-03-02T00:31:55;99860.16;;;9.89;86.04
26320;BME280;14024;52.226;5.200;2024-03-02T00:34:21;99863.25;;;9.40;88.82
26320;BME280;14024;52.226;5.200;2024-03-02T00:36:47;99853.00;;;9.06;91.20
26320;BME280;14024;52.226;5.200;2024-03-02T00:39:14;99841.13;;;9.27;92.55
26320;BME280;14024;52.226;5.200;2024-03-02T00:41:41;99853.94;;;9.05;93.38
26320;BME280;14024;52.226;5.200;2024-03-02T00:44:09;99857.16;;;9.24;94.01
26320;BME280;14024;52.226;5.200;2024-03-02T00:46:38;99864.38;;;9.36;93.84
26320;BME280;14024;52.226;5.200;2024-03-02T00:51:36;99852.81;;;9.37;94.17
26320;BME280;14024;52.226;5.200;2024-03-02T00:54:06;99856.34;;;9.52;93.83
26320;BME280;14024;52.226;5.200;2024-03-02T00:56:32;99866.41;;;9.74;94.42
26320;BME280;14024;52.226;5.200;2024-03-02T00:58:59;99859.97;;;9.92;94.32
26320;BME280;14024;52.226;5.200;2024-03-02T01:01:25;99870.72;;;10.03;94.04
26320;BME280;14024;52.226;5.200;2024-03-02T01:03:50;99866.03;;;9.80;92.96
26320;BME280;14024;52.226;5.200;2024-03-02T01:06:16;99877.41;;;9.39;95.49
26320;BME280;14024;52.226;5.200;2024-03-02T01:08:42;99878.50;;;9.21;96.77
26320;BME280;14024;52.226;5.200;2024-03-02T01:11:08;99879.06;;;9.12;97.47
26320;BME280;14024;52.226;5.200;2024-03-02T01:13:34;99860.72;;;8.95;98.02
26320;BME280;14024;52.226;5.200;2024-03-02T01:16:00;99854.31;;;8.99;99.01
26320;BME280;14024;52.226;5.200;2024-03-02T01:18:25;99864.38;;;9.36;98.67
26320;BME280;14024;52.226;5.200;2024-03-02T01:20:50;99876.69;;;9.08;97.97
26320;BME280;14024;52.226;5.200;2024-03-02T01:23:22;99875.41;;;9.29;98.01
26320;BME280;14024;52.226;5.200;2024-03-02T01:25:47;99874.25;;;9.19;97.38
26320;BME280;14024;52.226;5.200;2024-03-02T01:28:13;99881.75;;;9.26;97.67
26320;BME280;14024;52.226;5.200;2024-03-02T01:30:39;99879.25;;;9.09;98.23
26320;BME280;14024;52.226;5.200;2024-03-02T01:33:04;99878.72;;;9.18;97.87
26320;BME280;14024;52.226;5.200;2024-03-02T01:35:31;99868.41;;;9.28;97.54
26320;BME280;14024;52.226;5.200;2024-03-02T01:37:56;99875.28;;;9.16;97.60
26320;BME280;14024;52.226;5.200;2024-03-02T01:40:22;99882.28;;;9.17;97.51
26320;BME280;14024;52.226;5.200;2024-03-02T01:42:51;99883.91;;;9.62;97.60
26320;BME280;14024;52.226;5.200;2024-03-02T01:45:17;99875.50;;;9.41;96.16
26320;BME280;14024;52.226;5.200;2024-03-02T01:47:42;99873.91;;;8.81;96.98
26320;BME280;14024;52.226;5.200;2024-03-02T01:50:08;99880.97;;;8.80;99.58
26320;BME280;14024;52.226;5.200;2024-03-02T01:52:34;99884.09;;;8.73;99.51
26320;BME280;14024;52.226;5.200;2024-03-02T01:54:59;99892.66;;;8.46;100.00
26320;BME280;14024;52.226;5.200;2024-03-02T01:57:24;99898.34;;;8.39;100.00
26320;BME280;14024;52.226;5.200;2024-03-02T01:59:50;99907.22;;;8.38;100.00
26320;BME280;14024;52.226;5.200;2024-03-02T02:02:16;99908.06;;;8.38;100.00
26320;BME280;14024;52.226;5.200;2024-03-02T02:04:42;99905.78;;;8.32;100.00
26320;BME280;14024;52.226;5.200;2024-03-02T02:07:07;99907.19;;;8.06;100.00
26320;BME280;14024;52.226;5.200;2024-03-02T02:09:32;99895.28;;;8.15;100.00
26320;BME280;14024;52.226;5.200;2024-03-02T02:11:58;99887.84;;;8.69;100.00
26320;BME280;14024;52.226;5.200;2024-03-02T02:14:24;99891.19;;;8.57;100.00
26320;BME280;14024;52.226;5.200;2024-03-02T02:16:49;99898.81;;;8.77;100.00
26320;BME280;14024;52.226;5.200;2024-03-02T02:19:15;99906.00;;;8.59;100.00
26320;BME280;14024;52.226;5.200;2024-03-02T02:21:43;99914.88;;;8.42;100.00
26320;BME280;14024;52.226;5.200;2024-03-02T02:24:09;99913.25;;;8.24;100.00
26320;BME280;14024;52.226;5.200;2024-03-02T02:26:34;99898.22;;;8.42;100.00
26320;BME280;14024;52.226;5.200;2024-03-02T02:28:59;99873.88;;;8.51;100.00
26320;BME280;14024;52.226;5.200;2024-03-02T02:31:24;99891.50;;;8.66;100.00
26320;BME280;14024;52.226;5.200;2024-03-02T02:33:50;99891.75;;;8.32;100.00
26320;BME280;14024;52.226;5.200;2024-03-02T02:36:15;99889.00;;;8.33;100.00
26320;BME280;14024;52.226;5.200;2024-03-02T02:38:44;99896.47;;;8.25;100.00
26320;BME280;14024;52.226;5.200;2024-03-02T02:41:11;99892.22;;;8.07;100.00
26320;BME280;14024;52.226;5.200;2024-03-02T02:43:36;99904.00;;;8.33;100.00
26320;BME280;14024;52.226;5.200;2024-03-02T02:46:01;99897.16;;;8.44;100.00
26320;BME280;14024;52.226;5.200;2024-03-02T02:48:26;99903.53;;;8.56;100.00
26320;BME280;14024;52.226;5.200;2024-03-02T02:50:52;99902.94;;;8.51;100.00
26320;BME280;14024;52.226;5.200;2024-03-02T02:53:17;99897.16;;;8.44;100.00
26320;BME280;14024;52.226;5.200;2024-03-02T02:55:42;99893.88;;;8.71;100.00
26320;BME280;14024;52.226;5.200;2024-03-02T02:58:09;99908.59;;;8.45;100.00
26320;BME280;14024;52.226;5.200;2024-03-02T03:00:34;99910.97;;;8.18;100.00
26320;BME280;14024;52.226;5.200;2024-03-02T03:03:00;99909.84;;;8.22;100.00
26320;BME280;14024;52.226;5.200;2024-03-02T03:05:26;99917.78;;;8.22;100.00
26320;BME280;14024;52.226;5.200;2024-03-02T03:07:51;99913.41;;;8.52;100.00
26320;BME280;14024;52.226;5.200;2024-03-02T03:10:17;99906.94;;;8.42;100.00
26320;BME280;14024;52.226;5.200;2024-03-02T03:12:42;99913.88;;;8.45;100.00
26320;BME280;14024;52.226;5.200;2024-03-02T03:15:09;99914.88;;;8.27;100.00
26320;BME280;14024;52.226;5.200;2024-03-02T03:17:37;99912.06;;;8.14;100.00
26320;BME280;14024;52.226;5.200;2024-03-02T03:20:03;99907.13;;;8.39;100.00
26320;BME280;14024;52.226;5.200;2024-03-02T03:22:29;99910.59;;;8.24;100.00
26320;BME280;14024;52.226;5.200;2024-03-02T03:24:55;99914.19;;;8.23;100.00
26320;BME280;14024;52.226;5.200;2024-03-02T03:27:20;99923.53;;;8.29;100.00
26320;BME280;14024;52.226;5.200;2024-03-02T03:29:46;99924.06;;;8.67;100.00
26320;BME280;14024;52.226;5.200;2024-03-02T03:32:11;99908.06;;;8.38;100.00
26320;BME280;14024;52.226;5.200;2024-03-02T03:34:37;99918.09;;;8.16;100.00
26320;BME280;14024;52.226;5.200;2024-03-02T03:37:02;99918.28;;;8.44;100.00
26320;BME280;14024;52.226;5.200;2024-03-02T03:39:28;99917.19;;;8.48;100.00
26320;BME280;14024;52.226;5.200;2024-03-02T03:41:54;99934.03;;;8.62;99.43
26320;BME280;14024;52.226;5.200;2024-03-02T03:44:19;99926.69;;;8.20;100.00
26320;BME280;14024;52.226;5.200;2024-03-02T03:46:45;99927.31;;;8.09;100.00
26320;BME280;14024;52.226;5.200;2024-03-02T03:49:10;99930.53;;;8.14;100.00
26320;BME280;14024;52.226;5.200;2024-03-02T03:51:35;99927.47;;;8.53;100.00
26320;BME280;14024;52.226;5.200;2024-03-02T03:54:01;99940.84;;;8.66;98.96
26320;BME280;14024;52.226;5.200;2024-03-02T03:56:27;99942.28;;;8.24;98.75
26320;BME280;14024;52.226;5.200;2024-03-02T03:58:52;99945.41;;;8.32;99.27
26320;BME280;14024;52.226;5.200;2024-03-02T04:01:17;99941.28;;;8.27;99.92
26320;BME280;14024;52.226;5.200;2024-03-02T04:03:43;99941.78;;;8.33;98.51
26320;BME280;14024;52.226;5.200;2024-03-02T04:06:08;99934.47;;;8.23;98.20
26320;BME280;14024;52.226;5.200;2024-03-02T04:08:33;99943.13;;;8.72;99.51
26320;BME280;14024;52.226;5.200;2024-03-02T04:10:59;99946.94;;;9.12;98.90
26320;BME280;14024;52.226;5.200;2024-03-02T04:13:24;99944.25;;;8.98;95.39
26320;BME280;14024;52.226;5.200;2024-03-02T04:15:49;99959.44;;;8.94;97.11
26320;BME280;14024;52.226;5.200;2024-03-02T04:18:15;99939.47;;;9.04;95.79
26320;BME280;14024;52.226;5.200;2024-03-02T04:20:41;99957.28;;;8.71;96.95
26320;BME280;14024;52.226;5.200;2024-03-02T04:23:06;99951.34;;;8.36;96.38
26320;BME280;14024;52.226;5.200;2024-03-02T04:25:32;99955.44;;;8.41;97.66
26320;BME280;14024;52.226;5.200;2024-03-02T04:27:58;99951.84;;;8.42;97.89
26320;BME280;14024;52.226;5.200;2024-03-02T04:30:23;99954.94;;;8.50;97.52
26320;BME280;14024;52.226;5.200;2024-03-02T04:32:48;99949.53;;;8.68;96.40
26320;BME280;14024;52.226;5.200;2024-03-02T04:35:14;99947.41;;;8.59;98.53
26320;BME280;14024;52.226;5.200;2024-03-02T04:37:39;99953.72;;;8.40;97.59
26320;BME280;14024;52.226;5.200;2024-03-02T04:40:05;99956.13;;;8.45;96.99
26320;BME280;14024;52.226;5.200;2024-03-02T04:42:34;99948.53;;;8.39;96.99
26320;BME280;14024;52.226;5.200;2024-03-02T04:45:00;99958.47;;;8.18;98.49
26320;BME280;14024;52.226;5.200;2024-03-02T04:47:25;99959.94;;;8.39;99.48
26320;BME280;14024;52.226;5.200;2024-03-02T04:49:50;99960.19;;;8.35;97.82
26320;BME280;14024;52.226;5.200;2024-03-02T04:52:17;99968.03;;;8.36;97.94
26320;BME280;14024;52.226;5.200;2024-03-02T04:54:43;99966.53;;;8.15;99.38
26320;BME280;14024;52.226;5.200;2024-03-02T04:57:27;99975.00;;;8.53;99.78
26320;BME280;14024;52.226;5.200;2024-03-02T04:59:53;99974.16;;;8.52;98.31
26320;BME280;14024;52.226;5.200;2024-03-02T05:02:18;99974.66;;;8.75;96.78
26320;BME280;14024;52.226;5.200;2024-03-02T05:04:43;99976.81;;;8.52;96.63
26320;BME280;14024;52.226;5.200;2024-03-02T05:07:09;99981.97;;;8.70;97.11
26320;BME280;14024;52.226;5.200;2024-03-02T05:09:35;99984.34;;;8.27;98.00
26320;BME280;14024;52.226;5.200;2024-03-02T05:12:00;99976.44;;;8.27;98.58
26320;BME280;14024;52.226;5.200;2024-03-02T05:14:48;99980.13;;;8.40;96.65
26320;BME280;14024;52.226;5.200;2024-03-02T05:17:13;99980.81;;;8.60;96.86
26320;BME280;14024;52.226;5.200;2024-03-02T05:19:39;99979.78;;;8.62;96.64
26320;BME280;14024;52.226;5.200;2024-03-02T05:22:04;99985.94;;;8.31;95.96
26320;BME280;14024;52.226;5.200;2024-03-02T05:24:30;99992.69;;;8.04;97.77
26320;BME280;14024;52.226;5.200;2024-03-02T05:26:56;99990.88;;;8.37;98.61
26320;BME280;14024;52.226;5.200;2024-03-02T05:29:21;99994.91;;;8.27;96.94
26320;BME280;14024;52.226;5.200;2024-03-02T05:31:47;99991.13;;;8.16;96.44
26320;BME280;14024;52.226;5.200;2024-03-02T05:34:12;99987.72;;;8.46;97.47
26320;BME280;14024;52.226;5.200;2024-03-02T05:36:38;99994.88;;;8.44;96.28
26320;BME280;14024;52.226;5.200;2024-03-02T05:39:04;99992.91;;;8.48;96.16
26320;BME280;14024;52.226;5.200;2024-03-02T05:41:31;99992.91;;;8.64;94.28
26320;BME280;14024;52.226;5.200;2024-03-02T05:43:56;99993.25;;;8.42;96.43
26320;BME280;14024;52.226;5.200;2024-03-02T05:46:22;100002.69;;;8.30;95.16
26320;BME280;14024;52.226;5.200;2024-03-02T05:48:47;100003.66;;;8.12;95.79
26320;BME280;14024;52.226;5.200;2024-03-02T05:51:13;100004.31;;;8.48;98.13
26320;BME280;14024;52.226;5.200;2024-03-02T05:53:38;100003.13;;;8.70;94.51
26320;BME280;14024;52.226;5.200;2024-03-02T05:56:04;100000.25;;;8.59;93.56
26320;BME280;14024;52.226;5.200;2024-03-02T05:58:30;100000.72;;;8.34;94.36
26320;BME280;14024;52.226;5.200;2024-03-02T06:01:14;100006.41;;;8.26;94.36
26320;BME280;14024;52.226;5.200;2024-03-02T06:03:39;100001.69;;;8.00;95.41
26320;BME280;14024;52.226;5.200;2024-03-02T06:06:05;100009.00;;;7.95;94.61
26320;BME280;14024;52.226;5.200;2024-03-02T06:08:30;100009.91;;;7.94;95.64
26320;BME280;14024;52.226;5.200;2024-03-02T06:10:56;100016.31;;;7.90;94.61
26320;BME280;14024;52.226;5.200;2024-03-02T06:13:21;100018.16;;;8.21;95.88
26320;BME280;14024;52.226;5.200;2024-03-02T06:15:47;99999.38;;;7.94;93.08
26320;BME280;14024;52.226;5.200;2024-03-02T06:18:12;100020.47;;;7.94;94.77
26320;BME280;14024;52.226;5.200;2024-03-02T06:20:37;100017.69;;;7.97;95.08
26320;BME280;14024;52.226;5.200;2024-03-02T06:23:03;100018.88;;;7.91;94.56
26320;BME280;14024;52.226;5.200;2024-03-02T06:25:29;100021.31;;;7.61;95.15
26320;BME280;14024;52.226;5.200;2024-03-02T06:27:54;100025.31;;;7.86;96.63
26320;BME280;14024;52.226;5.200;2024-03-02T06:30:19;100034.78;;;7.90;95.45
26320;BME280;14024;52.226;5.200;2024-03-02T06:32:46;100034.63;;;7.76;96.26
26320;BME280;14024;52.226;5.200;2024-03-02T06:35:11;100029.25;;;7.94;95.82
26320;BME280;14024;52.226;5.200;2024-03-02T06:37:38;100031.94;;;7.77;95.25
26320;BME280;14024;52.226;5.200;2024-03-02T06:40:05;100036.38;;;7.42;96.37
26320;BME280;14024;52.226;5.200;2024-03-02T06:42:33;100040.84;;;7.57;97.14
26320;BME280;14024;52.226;5.200;2024-03-02T06:44:58;100045.03;;;7.79;96.75
26320;BME280;14024;52.226;5.200;2024-03-02T06:47:24;100045.41;;;7.71;96.33
26320;BME280;14024;52.226;5.200;2024-03-02T06:49:49;100054.47;;;8.00;95.70
26320;BME280;14024;52.226;5.200;2024-03-02T06:52:14;100042.59;;;8.24;95.25
26320;BME280;14024;52.226;5.200;2024-03-02T06:54:40;100041.53;;;8.11;93.81
26320;BME280;14024;52.226;5.200;2024-03-02T06:57:05;100046.63;;;7.98;94.06
26320;BME280;14024;52.226;5.200;2024-03-02T06:59:30;100053.13;;;8.08;94.14
26320;BME280;14024;52.226;5.200;2024-03-02T07:01:56;100046.44;;;8.19;94.49
26320;BME280;14024;52.226;5.200;2024-03-02T07:04:22;100047.41;;;8.33;92.77
26320;BME280;14024;52.226;5.200;2024-03-02T07:06:47;100043.56;;;8.06;92.14
26320;BME280;14024;52.226;5.200;2024-03-02T07:09:12;100041.03;;;8.20;93.11
26320;BME280;14024;52.226;5.200;2024-03-02T07:11:37;100051.84;;;8.33;92.56
26320;BME280;14024;52.226;5.200;2024-03-02T07:14:03;100044.19;;;8.11;91.49
26320;BME280;14024;52.226;5.200;2024-03-02T07:16:31;100043.41;;;8.09;92.62
26320;BME280;14024;52.226;5.200;2024-03-02T07:18:58;100045.16;;;7.93;92.98
26320;BME280;14024;52.226;5.200;2024-03-02T07:21:24;100047.16;;;8.05;91.88
26320;BME280;14024;52.226;5.200;2024-03-02T07:23:50;100048.91;;;8.22;92.03
26320;BME280;14024;52.226;5.200;2024-03-02T07:26:16;100051.47;;;8.23;90.42
26320;BME280;14024;52.226;5.200;2024-03-02T07:28:43;100049.75;;;8.22;91.30
26320;BME280;14024;52.226;5.200;2024-03-02T07:31:10;100056.88;;;8.20;91.50
26320;BME280;14024;52.226;5.200;2024-03-02T07:33:35;100057.72;;;8.05;91.33
26320;BME280;14024;52.226;5.200;2024-03-02T07:36:01;100056.00;;;8.04;91.42
26320;BME280;14024;52.226;5.200;2024-03-02T07:38:27;100067.50;;;8.03;91.84
26320;BME280;14024;52.226;5.200;2024-03-02T07:40:53;100066.06;;;8.13;91.93
26320;BME280;14024;52.226;5.200;2024-03-02T07:43:19;100071.88;;;8.52;91.57
26320;BME280;14024;52.226;5.200;2024-03-02T07:45:45;100070.78;;;8.72;89.72
26320;BME280;14024;52.226;5.200;2024-03-02T07:48:10;100078.78;;;9.02;89.95
26320;BME280;14024;52.226;5.200;2024-03-02T07:50:36;100072.00;;;8.82;87.38
26320;BME280;14024;52.226;5.200;2024-03-02T07:53:02;100078.03;;;8.69;89.35
26320;BME280;14024;52.226;5.200;2024-03-02T07:55:29;100077.78;;;8.73;88.58
26320;BME280;14024;52.226;5.200;2024-03-02T07:57:55;100079.88;;;8.18;89.46
26320;BME280;14024;52.226;5.200;2024-03-02T08:00:22;100077.22;;;8.35;92.08
26320;BME280;14024;52.226;5.200;2024-03-02T08:02:48;100084.69;;;8.27;90.77
26320;BME280;14024;52.226;5.200;2024-03-02T08:05:14;100092.78;;;8.73;92.41
26320;BME280;14024;52.226;5.200;2024-03-02T08:07:39;100093.19;;;8.65;89.25
26320;BME280;14024;52.226;5.200;2024-03-02T08:10:06;100086.47;;;8.60;90.29
26320;BME280;14024;52.226;5.200;2024-03-02T08:12:32;100089.69;;;8.49;89.48
26320;BME280;14024;52.226;5.200;2024-03-02T08:14:57;100089.38;;;8.55;89.10
26320;BME280;14024;52.226;5.200;2024-03-02T08:17:22;100092.44;;;8.63;89.64
26320;BME280;14024;52.226;5.200;2024-03-02T08:19:48;100096.88;;;8.30;89.54
26320;BME280;14024;52.226;5.200;2024-03-02T08:22:14;100097.66;;;8.32;90.08
26320;BME280;14024;52.226;5.200;2024-03-02T08:24:40;100089.88;;;8.62;90.38
26320;BME280;14024;52.226;5.200;2024-03-02T08:27:06;100101.81;;;8.69;90.03
26320;BME280;14024;52.226;5.200;2024-03-02T08:29:31;100091.28;;;8.51;89.67
26320;BME280;14024;52.226;5.200;2024-03-02T08:31:56;100091.56;;;8.63;90.19
26320;BME280;14024;52.226;5.200;2024-03-02T08:34:22;100094.91;;;8.82;90.39
26320;BME280;14024;52.226;5.200;2024-03-02T08:36:50;100090.38;;;8.84;89.16
26320;BME280;14024;52.226;5.200;2024-03-02T08:39:16;100093.13;;;8.82;88.62
26320;BME280;14024;52.226;5.200;2024-03-02T08:41:44;100086.47;;;8.75;89.16
26320;BME280;14024;52.226;5.200;2024-03-02T08:44:09;100092.81;;;8.56;88.98
26320;BME280;14024;52.226;5.200;2024-03-02T08:46:35;100082.19;;;8.57;88.83
26320;BME280;14024;52.226;5.200;2024-03-02T08:49:00;100082.19;;;8.57;88.52
26320;BME280;14024;52.226;5.200;2024-03-02T08:51:26;100084.59;;;8.62;88.96
26320;BME280;14024;52.226;5.200;2024-03-02T08:53:51;100092.69;;;8.74;88.24
26320;BME280;14024;52.226;5.200;2024-03-02T08:56:17;100081.00;;;8.94;88.43
26320;BME280;14024;52.226;5.200;2024-03-02T08:58:43;100096.09;;;8.92;89.20
26320;BME280;14024;52.226;5.200;2024-03-02T09:01:09;100083.13;;;9.03;88.80
26320;BME280;14024;52.226;5.200;2024-03-02T09:03:35;100091.94;;;9.04;87.47
26320;BME280;14024;52.226;5.200;2024-03-02T09:06:01;100096.66;;;9.28;88.23
26320;BME280;14024;52.226;5.200;2024-03-02T09:08:26;100097.84;;;9.38;86.59
26320;BME280;14024;52.226;5.200;2024-03-02T09:10:52;100104.47;;;9.46;87.25
26320;BME280;14024;52.226;5.200;2024-03-02T09:13:18;100104.47;;;9.46;84.90
26320;BME280;14024;52.226;5.200;2024-03-02T09:15:43;100104.50;;;9.30;86.50
26320;BME280;14024;52.226;5.200;2024-03-02T09:18:09;100103.25;;;9.21;85.12
26320;BME280;14024;52.226;5.200;2024-03-02T09:20:35;100112.72;;;9.25;86.06
26320;BME280;14024;52.226;5.200;2024-03-02T09:23:00;100110.47;;;9.49;87.98
26320;BME280;14024;52.226;5.200;2024-03-02T09:25:25;100111.91;;;9.69;85.23
26320;BME280;14024;52.226;5.200;2024-03-02T09:27:51;100112.72;;;9.25;84.93
26320;BME280;14024;52.226;5.200;2024-03-02T09:30:16;100115.22;;;9.43;86.70
26320;BME280;14024;52.226;5.200;2024-03-02T09:32:41;100116.88;;;9.29;84.39
26320;BME280;14024;52.226;5.200;2024-03-02T09:35:07;100128.38;;;9.28;85.17
26320;BME280;14024;52.226;5.200;2024-03-02T09:37:34;100116.59;;;9.50;85.24
26320;BME280;14024;52.226;5.200;2024-03-02T09:40:00;100119.13;;;9.67;83.94
26320;BME280;14024;52.226;5.200;2024-03-02T09:42:26;100106.97;;;9.93;83.99
26320;BME280;14024;52.226;5.200;2024-03-02T09:44:52;100113.50;;;10.01;82.74
26320;BME280;14024;52.226;5.200;2024-03-02T09:47:17;100108.66;;;10.23;83.50
26320;BME280;14024;52.226;5.200;2024-03-02T09:49:43;100103.28;;;9.95;80.68
26320;BME280;14024;52.226;5.200;2024-03-02T09:52:10;100115.28;;;10.16;81.52
26320;BME280;14024;52.226;5.200;2024-03-02T09:54:36;100106.28;;;10.19;81.65
26320;BME280;14024;52.226;5.200;2024-03-02T09:57:01;100117.31;;;10.11;80.37
26320;BME280;14024;52.226;5.200;2024-03-02T09:59:27;100111.44;;;10.06;79.59
26320;BME280;14024;52.226;5.200;2024-03-02T10:01:58;100121.63;;;9.84;80.54
26320;BME280;14024;52.226;5.200;2024-03-02T10:04:25;100117.59;;;9.63;81.29
26320;BME280;14024;52.226;5.200;2024-03-02T10:06:52;100109.50;;;9.50;80.78
26320;BME280;14024;52.226;5.200;2024-03-02T10:09:34;100117.09;;;9.56;80.17
26320;BME280;14024;52.226;5.200;2024-03-02T10:12:07;100119.66;;;9.58;80.62
26320;BME280;14024;52.226;5.200;2024-03-02T10:14:33;100122.44;;;9.55;80.25
26320;BME280;14024;52.226;5.200;2024-03-02T10:17:06;100119.81;;;9.55;78.91
26320;BME280;14024;52.226;5.200;2024-03-02T10:19:33;100109.53;;;9.64;78.01
26320;BME280;14024;52.226;5.200;2024-03-02T10:22:00;100108.16;;;9.73;78.04
26320;BME280;14024;52.226;5.200;2024-03-02T10:24:26;100103.09;;;9.84;78.37
26320;BME280;14024;52.226;5.200;2024-03-02T10:26:52;100100.56;;;9.97;77.46
26320;BME280;14024;52.226;5.200;2024-03-02T10:29:18;100101.06;;;10.03;77.44
26320;BME280;14024;52.226;5.200;2024-03-02T10:31:45;100106.63;;;9.99;76.22
26320;BME280;14024;52.226;5.200;2024-03-02T10:34:11;100107.31;;;9.72;76.06
26320;BME280;14024;52.226;5.200;2024-03-02T10:36:40;100097.56;;;9.73;76.19
26320;BME280;14024;52.226;5.200;2024-03-02T10:39:07;100096.47;;;9.91;77.06
26320;BME280;14024;52.226;5.200;2024-03-02T10:41:34;100107.56;;;9.98;76.46
26320;BME280;14024;52.226;5.200;2024-03-02T10:44:02;100105.63;;;10.15;76.04
26320;BME280;14024;52.226;5.200;2024-03-02T10:46:29;100096.06;;;10.13;75.28
26320;BME280;14024;52.226;5.200;2024-03-02T10:48:56;100081.50;;;10.20;74.73
26320;BME280;14024;52.226;5.200;2024-03-02T10:51:27;100088.69;;;10.18;73.71
26320;BME280;14024;52.226;5.200;2024-03-02T10:53:54;100090.50;;;10.32;75.12
26320;BME280;14024;52.226;5.200;2024-03-02T10:56:28;100086.16;;;10.31;72.41
26320;BME280;14024;52.226;5.200;2024-03-02T10:59:24;100081.97;;;10.41;72.80
26320;BME280;14024;52.226;5.200;2024-03-02T11:01:56;100075.81;;;10.40;70.71
26320;BME280;14024;52.226;5.200;2024-03-02T11:04:26;100073.66;;;10.47;72.30
26320;BME280;14024;52.226;5.200;2024-03-02T11:07:02;100072.59;;;10.63;72.13
26320;BME280;14024;52.226;5.200;2024-03-02T11:09:33;100077.81;;;10.51;71.06
26320;BME280;14024;52.226;5.200;2024-03-02T11:12:03;100083.09;;;10.65;71.03
26320;BME280;14024;52.226;5.200;2024-03-02T11:14:32;100081.59;;;10.61;70.81
26320;BME280;14024;52.226;5.200;2024-03-02T11:17:02;100076.88;;;10.52;71.26
26320;BME280;14024;52.226;5.200;2024-03-02T11:19:29;100075.72;;;10.70;71.44
26320;BME280;14024;52.226;5.200;2024-03-02T11:21:55;100085.16;;;10.88;70.40
26320;BME280;14024;52.226;5.200;2024-03-02T11:26:50;100084.91;;;11.05;69.75
26320;BME280;14024;52.226;5.200;2024-03-02T11:29:42;100084.31;;;11.14;69.63
26320;BME280;14024;52.226;5.200;2024-03-02T11:32:20;100075.13;;;11.20;69.33
26320;BME280;14024;52.226;5.200;2024-03-02T11:34:47;100068.06;;;11.06;68.52
26320;BME280;14024;52.226;5.200;2024-03-02T11:37:15;100080.13;;;11.25;68.29
26320;BME280;14024;52.226;5.200;2024-03-02T11:39:42;100077.84;;;11.18;68.31
26320;BME280;14024;52.226;5.200;2024-03-02T11:42:08;100076.94;;;11.05;67.86
26320;BME280;14024;52.226;5.200;2024-03-02T11:44:39;100070.84;;;11.17;68.51
26320;BME280;14024;52.226;5.200;2024-03-02T11:47:08;100064.84;;;11.01;68.47
26320;BME280;14024;52.226;5.200;2024-03-02T11:49:46;100065.97;;;11.11;69.34
26320;BME280;14024;52.226;5.200;2024-03-02T11:52:14;100067.03;;;11.22;68.32
26320;BME280;14024;52.226;5.200;2024-03-02T11:54:42;100067.09;;;11.34;67.34
26320;BME280;14024;52.226;5.200;2024-03-02T11:57:21;100057.56;;;11.44;66.62
26320;BME280;14024;52.226;5.200;2024-03-02T11:59:49;100067.38;;;11.56;66.63
26320;BME280;14024;52.226;5.200;2024-03-02T12:02:17;100060.75;;;11.49;65.99
26320;BME280;14024;52.226;5.200;2024-03-02T12:04:43;100064.91;;;11.53;66.25
26320;BME280;14024;52.226;5.200;2024-03-02T12:07:18;100053.34;;;11.54;66.81
26320;BME280;14024;52.226;5.200;2024-03-02T12:09:44;100051.13;;;11.61;66.55
26320;BME280;14024;52.226;5.200;2024-03-02T12:12:10;100049.16;;;11.77;66.83
26320;BME280;14024;52.226;5.200;2024-03-02T12:14:37;100039.63;;;11.87;66.35
26320;BME280;14024;52.226;5.200;2024-03-02T12:17:04;100029.22;;;11.97;65.34
26320;BME280;14024;52.226;5.200;2024-03-02T12:19:30;100027.69;;;11.80;65.08
26320;BME280;14024;52.226;5.200;2024-03-02T12:21:59;100029.00;;;11.87;65.26
26320;BME280;14024;52.226;5.200;2024-03-02T12:24:29;100023.66;;;12.25;66.19
26320;BME280;14024;52.226;5.200;2024-03-02T12:26:55;100030.00;;;12.48;63.63
26320;BME280;14024;52.226;5.200;2024-03-02T12:29:21;100009.22;;;12.17;63.93
26320;BME280;14024;52.226;5.200;2024-03-02T12:31:50;100012.81;;;12.28;63.23
26320;BME280;14024;52.226;5.200;2024-03-02T12:34:17;100007.88;;;12.60;63.54
26320;BME280;14024;52.226;5.200;2024-03-02T12:36:42;100009.53;;;12.74;63.23
26320;BME280;14024;52.226;5.200;2024-03-02T12:39:08;100017.75;;;12.58;60.95
26320;BME280;14024;52.226;5.200;2024-03-02T12:41:37;100007.84;;;12.96;66.38
26320;BME280;14024;52.226;5.200;2024-03-02T12:44:05;99997.44;;;13.17;61.70
26320;BME280;14024;52.226;5.200;2024-03-02T12:46:31;99995.41;;;12.84;60.20
26320;BME280;14024;52.226;5.200;2024-03-02T12:48:57;99997.00;;;12.63;59.71
26320;BME280;14024;52.226;5.200;2024-03-02T12:51:23;100001.16;;;12.91;63.45
26320;BME280;14024;52.226;5.200;2024-03-02T12:53:55;99993.59;;;12.61;59.66
26320;BME280;14024;52.226;5.200;2024-03-02T12:56:21;99991.91;;;12.60;59.63
26320;BME280;14024;52.226;5.200;2024-03-02T12:58:47;100000.75;;;12.61;59.25
26320;BME280;14024;52.226;5.200;2024-03-02T13:01:14;99993.75;;;12.47;58.72